Exning, United Kingdom
Current Conditions -  °F | °C
As of 9:58 AM on Thursday 23 Oct 2014 (Local Time) from EGUN Reporting Station
Overcast Overcast  
Wind Chill: 54°   Ceiling: 3600
Heat Index: 54°   Visibility: 6mi
Dew Point: 54°   Wind: 14mph
Humidity: 100%   Direction: 230°SW
Pressure: 30.09"   Gusts: NA
Location:  52.27°N, 0.37°E
Report Text: EGUN 230858Z AUTO 23012KT 9999 OVC036 12/12 A3009 RMK AO2 SLP193 T01230123 55003 $
Loading
Personal Weather Stations






























Interactive Weather Map
Tropical Storm Tracking
New forecast layout! Learn more

10-Day Weather Forecast

Advertisements
Track Severe Weather on mobile